createdAt,value
2023-03-07T00:00:53.717Z,99152.97
2023-03-07T00:03:21.836Z,99164.06
2023-03-07T00:05:51.003Z,99147.47
2023-03-07T00:08:18.478Z,99150.72
2023-03-07T00:10:46.380Z,99142.47
2023-03-07T00:13:13.929Z,99151.75
2023-03-07T00:15:42.809Z,99143.31
2023-03-07T00:18:10.387Z,99133.38
2023-03-07T00:20:38.836Z,99142.81
2023-03-07T00:23:06.384Z,99138.06
2023-03-07T00:25:34.892Z,99131.56
2023-03-07T00:28:04.739Z,99140.72
2023-03-07T00:30:32.386Z,99135.94
2023-03-07T00:33:01.445Z,99126.97
2023-03-07T00:35:30.426Z,99127.22
2023-03-07T00:37:58.050Z,99126.25
2023-03-07T00:40:25.601Z,99130.69
2023-03-07T00:42:53.292Z,99121.13
2023-03-07T00:45:20.864Z,99125.19
2023-03-07T00:47:49.917Z,99115.69
2023-03-07T00:50:19.425Z,99106.19
2023-03-07T00:52:48.414Z,99113.38
2023-03-07T00:55:16.387Z,99107.78
2023-03-07T00:57:43.960Z,99114.03
2023-03-07T01:00:12.972Z,99108.09
2023-03-07T01:02:40.551Z,99115.03
2023-03-07T01:05:09.449Z,99111.03
2023-03-07T01:07:39.300Z,99111.56
2023-03-07T01:10:08.625Z,99106.06
2023-03-07T01:12:36.471Z,99106.63
2023-03-07T01:15:07.377Z,99101.94
2023-03-07T01:17:38.376Z,99109.84
2023-03-07T01:20:08.770Z,99102.38
2023-03-07T01:22:36.540Z,99090.38
2023-03-07T01:25:08.647Z,99098.25
2023-03-07T01:27:36.702Z,99087.91
2023-03-07T01:30:05.217Z,99094.88
2023-03-07T01:32:33.019Z,99091.41
2023-03-07T01:35:00.983Z,99086.16
2023-03-07T01:37:28.894Z,99078.03
2023-03-07T01:39:56.729Z,99075.81
2023-03-07T01:42:30.486Z,99075.41
2023-03-07T01:45:04.363Z,99074.59
2023-03-07T01:47:52.185Z,99064.91
2023-03-07T01:50:20.355Z,99070.44
2023-03-07T01:52:51.418Z,99069.50
2023-03-07T01:55:22.608Z,99057.06
2023-03-07T01:57:57.078Z,99046.25
2023-03-07T02:00:30.368Z,99045.41
2023-03-07T02:03:07.071Z,99040.84
2023-03-07T02:05:40.807Z,99037.38
2023-03-07T02:08:11.377Z,99038.94
2023-03-07T02:10:41.431Z,99027.28
2023-03-07T02:13:10.958Z,99025.22
2023-03-07T02:15:39.716Z,99029.50
2023-03-07T02:18:08.502Z,99025.47
2023-03-07T02:20:43.476Z,99030.75
2023-03-07T02:23:21.373Z,99018.84
2023-03-07T02:25:55.966Z,99019.56
2023-03-07T02:28:26.145Z,99019.41
2023-03-07T02:30:56.399Z,99018.69
2023-03-07T02:33:28.713Z,99021.34
2023-03-07T02:36:06.352Z,99018.16
2023-03-07T02:38:39.919Z,99014.44
2023-03-07T02:41:13.037Z,99006.94
2023-03-07T02:43:42.419Z,99014.13
2023-03-07T02:46:10.745Z,99015.38
2023-03-07T02:48:38.429Z,99017.19
2023-03-07T02:51:07.357Z,99010.25
2023-03-07T02:53:35.897Z,99006.38
2023-03-07T02:56:03.793Z,99000.28
2023-03-07T02:58:31.951Z,99004.31
2023-03-07T03:01:00.831Z,99005.66
2023-03-07T03:03:28.599Z,99003.03
2023-03-07T03:05:56.107Z,99009.28
2023-03-07T03:08:24.364Z,98998.34
2023-03-07T03:10:53.826Z,98995.69
2023-03-07T03:13:25.368Z,98995.56
2023-03-07T03:15:56.504Z,98994.44
2023-03-07T03:18:28.385Z,98996.13
2023-03-07T03:20:57.466Z,98991.53
2023-03-07T03:23:28.495Z,98996.13
2023-03-07T03:26:00.552Z,98979.34
2023-03-07T03:28:30.829Z,98983.53
2023-03-07T03:31:00.351Z,98981.84
2023-03-07T03:33:30.651Z,98975.88
2023-03-07T03:36:02.430Z,98973.50
2023-03-07T03:38:31.343Z,98979.66
2023-03-07T03:40:58.952Z,98977.97
2023-03-07T03:43:26.816Z,98971.59
2023-03-07T03:45:56.335Z,98961.59
2023-03-07T03:48:26.615Z,98966.88
2023-03-07T03:51:04.385Z,98968.00
2023-03-07T03:53:34.450Z,98972.44
2023-03-07T03:58:58.379Z,98978.53
2023-03-07T04:01:31.763Z,98972.13
2023-03-07T04:04:00.456Z,98971.88
2023-03-07T04:06:31.240Z,98978.09
2023-03-07T04:11:55.374Z,98984.91
2023-03-07T04:14:26.444Z,98981.72
2023-03-07T04:16:56.734Z,98970.34
2023-03-07T04:19:27.008Z,98973.00
2023-03-07T04:21:57.421Z,98971.91
2023-03-07T04:24:27.834Z,98979.06
2023-03-07T04:26:55.332Z,98969.94
2023-03-07T04:29:23.254Z,98974.66
2023-03-07T04:32:04.070Z,98977.13
2023-03-07T04:34:32.212Z,98967.56
2023-03-07T04:37:01.921Z,98966.19
2023-03-07T04:39:29.778Z,98965.81
2023-03-07T04:41:57.992Z,98961.38
2023-03-07T04:44:26.830Z,98966.34
2023-03-07T04:47:02.379Z,98965.34
2023-03-07T04:49:34.359Z,98973.69
2023-03-07T04:52:06.462Z,98979.38
2023-03-07T04:54:34.585Z,98965.94
2023-03-07T04:57:03.822Z,98955.56
2023-03-07T04:59:36.138Z,98968.84
2023-03-07T05:02:03.725Z,98957.63
2023-03-07T05:04:34.411Z,98963.84
2023-03-07T05:07:02.709Z,98963.31
2023-03-07T05:09:32.418Z,98972.84
2023-03-07T05:12:01.322Z,98976.19
2023-03-07T05:14:30.486Z,98977.44
2023-03-07T05:16:58.025Z,98974.38
2023-03-07T05:19:26.489Z,98971.31
2023-03-07T05:21:54.832Z,98960.22
2023-03-07T05:24:22.343Z,98961.06
2023-03-07T05:27:17.073Z,98963.28
2023-03-07T05:29:44.790Z,98962.81
2023-03-07T05:32:16.510Z,98958.25
2023-03-07T05:34:46.812Z,98953.81
2023-03-07T05:37:15.367Z,98947.19
2023-03-07T05:39:43.720Z,98943.03
2023-03-07T05:42:11.268Z,98950.09
2023-03-07T05:44:41.529Z,98954.81
2023-03-07T05:47:10.688Z,98954.38
2023-03-07T05:49:39.142Z,98951.88
2023-03-07T05:52:06.992Z,98944.81
2023-03-07T05:54:35.482Z,98945.13
2023-03-07T05:57:03.452Z,98945.13
2023-03-07T05:59:31.365Z,98944.44
2023-03-07T06:02:00.713Z,98941.66
2023-03-07T06:04:28.484Z,98935.28
2023-03-07T06:06:56.108Z,98941.66
2023-03-07T06:12:17.707Z,98941.50
2023-03-07T06:14:45.249Z,98935.56
2023-03-07T06:17:15.376Z,98928.38
2023-03-07T06:19:43.706Z,98933.47
2023-03-07T06:22:11.778Z,98930.44
2023-03-07T06:24:39.785Z,98935.13
2023-03-07T06:27:08.014Z,98932.94
2023-03-07T06:29:38.386Z,98939.13
2023-03-07T06:32:08.504Z,98933.22
2023-03-07T06:34:39.256Z,98929.88
2023-03-07T06:37:07.694Z,98936.41
2023-03-07T06:39:36.358Z,98939.72
2023-03-07T06:42:05.553Z,98934.03
2023-03-07T06:44:33.361Z,98935.97
2023-03-07T06:47:02.305Z,98937.88
2023-03-07T06:49:30.518Z,98937.88
2023-03-07T06:52:00.188Z,98937.78
2023-03-07T06:54:28.151Z,98933.34
2023-03-07T06:56:56.007Z,98940.25
2023-03-07T06:59:24.592Z,98939.13
2023-03-07T07:01:52.289Z,98939.13
2023-03-07T07:04:21.694Z,98938.59
2023-03-07T07:06:51.393Z,98941.47
2023-03-07T07:09:20.415Z,98947.72
2023-03-07T07:11:49.357Z,98937.06
2023-03-07T07:14:18.150Z,98940.50
2023-03-07T07:17:13.378Z,98938.75
2023-03-07T07:19:40.937Z,98938.44
2023-03-07T07:22:11.800Z,98939.56
2023-03-07T07:24:40.726Z,98946.91
2023-03-07T07:27:11.560Z,98947.03
2023-03-07T07:30:06.986Z,98944.53
2023-03-07T07:32:35.682Z,98950.38
2023-03-07T07:35:07.472Z,98947.75
2023-03-07T07:37:37.017Z,98942.78
2023-03-07T07:40:09.376Z,98955.22
2023-03-07T07:42:38.431Z,98948.44
2023-03-07T07:45:18.814Z,98946.47
2023-03-07T07:47:49.339Z,98944.44
2023-03-07T07:50:17.456Z,98955.22
2023-03-07T07:52:45.280Z,98958.69
2023-03-07T07:55:18.497Z,98973.88
2023-03-07T07:57:47.998Z,98979.53
2023-03-07T08:00:21.043Z,98980.59
2023-03-07T08:02:50.465Z,98986.66
2023-03-07T08:05:23.976Z,98988.50
2023-03-07T08:07:51.503Z,98986.78
2023-03-07T08:10:22.167Z,98982.53
2023-03-07T08:12:51.866Z,98983.56
2023-03-07T08:15:21.360Z,98990.03
2023-03-07T08:17:50.457Z,98996.75
2023-03-07T08:20:19.795Z,98991.03
2023-03-07T08:22:49.531Z,98991.66
2023-03-07T08:25:21.391Z,98992.28
2023-03-07T08:27:54.542Z,98993.59
2023-03-07T08:30:22.332Z,98989.56
2023-03-07T08:32:51.197Z,98984.31
2023-03-07T08:35:19.556Z,98987.63
2023-03-07T08:37:48.780Z,98990.63
2023-03-07T08:40:17.433Z,98987.06
2023-03-07T08:42:45.781Z,98981.00
2023-03-07T08:45:15.184Z,98978.59
2023-03-07T08:47:44.441Z,98984.69
2023-03-07T08:50:13.302Z,98987.16
2023-03-07T08:52:40.945Z,98981.22
2023-03-07T08:55:09.169Z,98985.50
2023-03-07T08:57:37.435Z,98981.22
2023-03-07T09:00:08.205Z,98982.88
2023-03-07T09:02:37.085Z,98982.06
2023-03-07T09:05:05.120Z,98991.56
2023-03-07T09:07:32.953Z,98992.53
2023-03-07T09:10:01.488Z,98988.25
2023-03-07T09:12:29.062Z,98998.63
2023-03-07T09:14:57.436Z,98995.16
2023-03-07T09:17:25.877Z,98995.31
2023-03-07T09:19:56.413Z,99003.03
2023-03-07T09:22:23.951Z,99003.03
2023-03-07T09:24:51.504Z,99001.50
2023-03-07T09:27:19.141Z,99004.38
2023-03-07T09:29:47.856Z,99003.53
2023-03-07T09:32:15.979Z,99009.75
2023-03-07T09:34:43.732Z,99016.66
2023-03-07T09:37:13.158Z,99015.13
2023-03-07T09:39:44.372Z,99010.94
2023-03-07T09:42:21.491Z,99010.22
2023-03-07T09:45:24.921Z,99012.03
2023-03-07T09:48:17.016Z,99006.31
2023-03-07T09:50:53.288Z,99006.44
2023-03-07T09:53:30.223Z,99012.63
2023-03-07T09:55:59.963Z,99001.44
2023-03-07T09:58:28.604Z,99009.44
2023-03-07T10:00:59.865Z,99005.00
2023-03-07T10:03:34.745Z,99000.59
2023-03-07T10:06:10.426Z,99009.28
2023-03-07T10:08:39.406Z,98999.63
2023-03-07T10:11:20.473Z,99002.25
2023-03-07T10:14:02.376Z,99004.88
2023-03-07T10:16:37.495Z,99001.44
2023-03-07T10:19:14.576Z,99001.44
2023-03-07T10:21:51.742Z,99005.72
2023-03-07T10:24:48.641Z,99001.31
2023-03-07T10:27:42.435Z,99012.53
2023-03-07T10:30:17.811Z,99010.72
2023-03-07T10:32:47.513Z,99002.88
2023-03-07T10:35:44.455Z,99001.53
2023-03-07T10:38:21.506Z,99000.31
2023-03-07T10:40:56.071Z,99012.50
2023-03-07T10:43:26.167Z,99013.06
2023-03-07T10:45:57.869Z,99012.97
2023-03-07T10:48:26.817Z,99019.47
2023-03-07T10:51:02.300Z,99023.66
2023-03-07T10:53:34.920Z,99018.50
2023-03-07T10:56:15.364Z,99006.44
2023-03-07T10:59:01.108Z,99014.78
2023-03-07T11:01:29.755Z,99008.09
2023-03-07T11:04:01.453Z,99010.63
2023-03-07T11:06:34.151Z,99004.97
2023-03-07T11:09:20.054Z,99011.78
2023-03-07T11:12:00.169Z,99012.25
2023-03-07T11:14:30.704Z,99010.78
2023-03-07T11:17:00.530Z,99013.13
2023-03-07T11:19:32.855Z,99012.16
2023-03-07T11:22:03.472Z,99019.94
2023-03-07T11:24:34.637Z,99013.44
2023-03-07T11:27:04.384Z,99016.53
2023-03-07T11:29:33.559Z,99012.84
2023-03-07T11:32:09.939Z,99020.31
2023-03-07T11:34:42.169Z,99017.44
2023-03-07T11:37:23.770Z,99016.28
2023-03-07T11:40:04.788Z,99023.31
2023-03-07T11:42:38.125Z,99017.94
2023-03-07T11:45:20.504Z,99020.06
2023-03-07T11:47:57.400Z,99021.47
2023-03-07T11:50:27.759Z,99018.44
2023-03-07T11:53:15.632Z,99020.81
2023-03-07T11:55:54.019Z,99025.56
2023-03-07T11:58:42.434Z,99028.75
2023-03-07T12:01:17.724Z,99031.44
2023-03-07T12:04:03.243Z,99029.19
2023-03-07T12:06:39.591Z,99035.56
2023-03-07T12:09:29.900Z,99032.41
2023-03-07T12:12:13.542Z,99034.63
2023-03-07T12:14:54.045Z,99028.13
2023-03-07T12:17:37.087Z,99033.00
2023-03-07T12:20:31.759Z,99035.78
2023-03-07T12:23:09.021Z,99027.38
2023-03-07T12:25:38.970Z,99035.63
2023-03-07T12:28:15.613Z,99037.28
2023-03-07T12:30:52.947Z,99041.34
2023-03-07T12:33:27.942Z,99028.63
2023-03-07T12:36:02.053Z,99029.31
2023-03-07T12:38:38.885Z,99023.97
2023-03-07T12:41:20.616Z,99020.22
2023-03-07T12:43:53.724Z,99028.34
2023-03-07T12:46:28.585Z,99025.06
2023-03-07T12:49:03.216Z,99017.75
2023-03-07T12:51:34.384Z,99025.78
2023-03-07T12:54:10.831Z,99019.84
2023-03-07T12:56:48.814Z,99015.97
2023-03-07T12:59:17.607Z,99012.38
2023-03-07T13:01:49.890Z,99017.78
2023-03-07T13:04:22.124Z,99014.72
2023-03-07T13:06:50.585Z,99012.81
2023-03-07T13:09:22.855Z,99015.88
2023-03-07T13:20:40.741Z,99013.66
2023-03-07T13:23:29.283Z,99020.47
2023-03-07T13:26:03.038Z,99015.63
2023-03-07T13:28:57.378Z,99019.34
2023-03-07T13:31:44.361Z,99020.59
2023-03-07T13:34:46.409Z,99012.84
2023-03-07T13:37:47.602Z,99007.19
2023-03-07T13:40:48.601Z,99010.53
2023-03-07T13:43:55.485Z,99003.06
2023-03-07T13:46:51.730Z,99009.56
2023-03-07T13:49:37.170Z,99002.34
2023-03-07T13:52:30.552Z,99001.13
2023-03-07T13:55:00.377Z,99007.63
2023-03-07T13:57:39.658Z,99001.78
2023-03-07T14:00:24.539Z,99007.47
2023-03-07T14:02:54.799Z,99004.84
2023-03-07T14:05:23.462Z,99006.25
2023-03-07T14:07:53.261Z,99005.81
2023-03-07T14:10:27.788Z,99011.22
2023-03-07T14:13:13.649Z,99010.09
2023-03-07T14:15:51.832Z,99012.63
2023-03-07T14:18:31.872Z,99012.31
2023-03-07T14:21:09.991Z,99012.06
2023-03-07T14:24:12.817Z,99013.56
2023-03-07T14:26:42.888Z,99011.34
2023-03-07T14:29:22.330Z,99013.88
2023-03-07T14:31:52.999Z,99011.78
2023-03-07T14:34:27.621Z,99016.91
2023-03-07T14:36:57.089Z,99016.34
2023-03-07T14:39:26.314Z,99019.81
2023-03-07T14:42:07.152Z,99021.75
2023-03-07T14:44:53.693Z,99022.59
2023-03-07T14:47:35.629Z,99017.03
2023-03-07T14:50:10.993Z,99022.03
2023-03-07T14:52:39.372Z,99029.22
2023-03-07T14:55:16.861Z,99031.72
2023-03-07T14:57:49.412Z,99032.13
2023-03-07T15:00:26.490Z,99038.81
2023-03-07T15:02:56.064Z,99036.00
2023-03-07T15:05:27.425Z,99034.50
2023-03-07T15:07:55.736Z,99047.38
2023-03-07T15:10:27.709Z,99050.50
2023-03-07T15:12:57.765Z,99050.75
2023-03-07T15:15:37.426Z,99049.16
2023-03-07T15:18:09.422Z,99052.84
2023-03-07T15:20:38.839Z,99065.09
2023-03-07T15:23:09.361Z,99059.94
2023-03-07T15:25:41.371Z,99062.38
2023-03-07T15:28:19.108Z,99065.59
2023-03-07T15:30:53.701Z,99069.09
2023-03-07T15:33:28.363Z,99067.25
2023-03-07T15:36:27.366Z,99076.97
2023-03-07T15:39:22.970Z,99083.09
2023-03-07T15:42:00.382Z,99084.13
2023-03-07T15:44:28.090Z,99077.44
2023-03-07T15:46:59.545Z,99076.97
2023-03-07T15:49:36.973Z,99078.06
2023-03-07T15:52:05.661Z,99087.63
2023-03-07T15:54:38.665Z,99088.84
2023-03-07T15:57:15.666Z,99094.94
2023-03-07T15:59:50.445Z,99083.03
2023-03-07T16:02:46.302Z,99093.66
2023-03-07T16:05:37.614Z,99095.19
2023-03-07T16:08:13.537Z,99090.06
2023-03-07T16:10:49.609Z,99086.88
2023-03-07T16:13:21.478Z,99089.25
2023-03-07T16:16:00.237Z,99091.88
2023-03-07T16:18:30.930Z,99088.41
2023-03-07T16:20:59.389Z,99091.66
2023-03-07T16:23:28.716Z,99090.91
2023-03-07T16:25:57.222Z,99082.09
2023-03-07T16:28:26.269Z,99088.06
2023-03-07T16:30:54.356Z,99093.44
2023-03-07T16:33:21.941Z,99085.56
2023-03-07T16:35:50.934Z,99087.31
2023-03-07T16:38:18.709Z,99089.94
2023-03-07T16:40:46.827Z,99090.91
2023-03-07T16:43:35.397Z,99087.22
2023-03-07T16:46:06.621Z,99096.16
2023-03-07T16:49:01.363Z,99090.22
2023-03-07T16:51:32.361Z,99091.28
2023-03-07T16:54:00.722Z,99091.28
2023-03-07T16:56:32.318Z,99095.59
2023-03-07T16:59:01.395Z,99100.00
2023-03-07T17:01:29.109Z,99102.50
2023-03-07T17:03:57.210Z,99109.53
2023-03-07T17:06:37.218Z,99100.69
2023-03-07T17:09:09.354Z,99112.97
2023-03-07T17:11:38.195Z,99108.69
2023-03-07T17:14:08.759Z,99111.31
2023-03-07T17:16:38.113Z,99122.63
2023-03-07T17:19:06.749Z,99129.53
2023-03-07T17:21:34.981Z,99128.72
2023-03-07T17:24:02.519Z,99140.16
2023-03-07T17:26:34.194Z,99139.31
2023-03-07T17:29:05.736Z,99137.53
2023-03-07T17:31:33.250Z,99140.25
2023-03-07T17:34:00.809Z,99152.44
2023-03-07T17:36:28.680Z,99154.19
2023-03-07T17:38:56.839Z,99155.97
2023-03-07T17:41:24.326Z,99156.09
2023-03-07T17:43:53.241Z,99151.81
2023-03-07T17:46:22.438Z,99162.31
2023-03-07T17:48:50.032Z,99165.75
2023-03-07T17:51:17.531Z,99166.84
2023-03-07T17:53:45.056Z,99176.38
2023-03-07T17:56:14.028Z,99179.00
2023-03-07T17:58:41.574Z,99185.91
2023-03-07T18:01:11.255Z,99186.84
2023-03-07T18:03:39.611Z,99186.84
2023-03-07T18:06:07.677Z,99191.13
2023-03-07T18:08:35.744Z,99204.25
2023-03-07T18:11:04.664Z,99200.66
2023-03-07T18:13:33.046Z,99199.84
2023-03-07T18:16:01.552Z,99202.47
2023-03-07T18:18:33.201Z,99209.38
2023-03-07T18:21:05.715Z,99204.13
2023-03-07T18:23:33.789Z,99207.56
2023-03-07T18:26:03.460Z,99211.88
2023-03-07T18:28:32.481Z,99212.00
2023-03-07T18:31:01.379Z,99215.34
2023-03-07T18:33:29.238Z,99216.06
2023-03-07T18:35:59.564Z,99214.47
2023-03-07T18:38:27.431Z,99218.91
2023-03-07T18:41:04.373Z,99223.22
2023-03-07T18:43:32.153Z,99223.22
2023-03-07T18:45:59.941Z,99226.66
2023-03-07T18:48:27.454Z,99231.78
2023-03-07T18:50:58.711Z,99233.56
2023-03-07T18:53:26.650Z,99232.75
2023-03-07T18:55:54.285Z,99238.00
2023-03-07T18:58:22.156Z,99241.44
2023-03-07T19:00:49.861Z,99256.22
2023-03-07T19:03:17.453Z,99254.44
2023-03-07T19:05:45.593Z,99254.19
2023-03-07T19:08:15.689Z,99257.03
2023-03-07T19:10:44.911Z,99252.75
2023-03-07T19:13:12.473Z,99245.72
2023-03-07T19:15:40.363Z,99254.44
2023-03-07T19:18:07.873Z,99252.75
2023-03-07T19:20:35.455Z,99251.81
2023-03-07T19:23:04.931Z,99255.38
2023-03-07T19:25:35.415Z,99261.47
2023-03-07T19:28:03.453Z,99264.91
2023-03-07T19:30:35.368Z,99265.63
2023-03-07T19:33:02.956Z,99271.81
2023-03-07T19:35:30.480Z,99275.19
2023-03-07T19:37:58.428Z,99274.69
2023-03-07T19:40:28.283Z,99288.63
2023-03-07T19:42:57.385Z,99286.84
2023-03-07T19:45:26.881Z,99295.19
2023-03-07T19:47:54.451Z,99285.88
2023-03-07T19:50:22.129Z,99290.31
2023-03-07T19:52:50.389Z,99289.59
2023-03-07T19:55:18.001Z,99283.38
2023-03-07T19:57:46.749Z,99276.47
2023-03-07T20:00:16.776Z,99276.56
2023-03-07T20:02:44.290Z,99285.41
2023-03-07T20:05:11.819Z,99288.00
2023-03-07T20:07:39.362Z,99290.63
2023-03-07T20:10:08.367Z,99295.50
2023-03-07T20:12:35.877Z,99294.56
2023-03-07T20:15:03.413Z,99292.19
2023-03-07T20:17:34.459Z,99293.00
2023-03-07T20:20:04.360Z,99288.81
2023-03-07T20:22:31.949Z,99291.44
2023-03-07T20:24:59.829Z,99302.06
2023-03-07T20:27:28.465Z,99302.19
2023-03-07T20:29:57.486Z,99308.25
2023-03-07T20:32:25.365Z,99307.53
2023-03-07T20:34:55.362Z,99312.78
2023-03-07T20:37:22.872Z,99312.66
2023-03-07T20:39:50.404Z,99311.94
2023-03-07T20:42:17.868Z,99317.19
2023-03-07T20:44:45.415Z,99317.06
2023-03-07T20:47:12.905Z,99317.19
2023-03-07T20:49:40.411Z,99325.75
2023-03-07T20:52:09.315Z,99317.06
2023-03-07T20:54:37.901Z,99310.16
2023-03-07T20:57:05.468Z,99319.56
2023-03-07T20:59:33.179Z,99321.34
2023-03-07T21:02:00.910Z,99326.47
2023-03-07T21:04:28.523Z,99324.81
2023-03-07T21:06:56.068Z,99326.47
2023-03-07T21:09:24.938Z,99323.97
2023-03-07T21:11:52.526Z,99325.66
2023-03-07T21:14:22.363Z,99320.41
2023-03-07T21:16:50.251Z,99325.66
2023-03-07T21:19:17.834Z,99323.03
2023-03-07T21:21:46.221Z,99322.19
2023-03-07T21:24:15.382Z,99324.94
2023-03-07T21:26:44.459Z,99325.75
2023-03-07T21:29:13.681Z,99324.31
2023-03-07T21:31:41.406Z,99321.81
2023-03-07T21:34:13.849Z,99327.06
2023-03-07T21:36:41.812Z,99325.25
2023-03-07T21:39:10.004Z,99328.22
2023-03-07T21:41:38.356Z,99336.09
2023-03-07T21:44:07.463Z,99345.03
2023-03-07T21:46:35.017Z,99342.41
2023-03-07T21:49:02.933Z,99347.75
2023-03-07T21:51:30.493Z,99343.13
2023-03-07T21:53:58.365Z,99345.59
2023-03-07T21:56:26.209Z,99347.47
2023-03-07T21:58:53.912Z,99344.13
2023-03-07T22:01:25.121Z,99342.47
2023-03-07T22:03:53.062Z,99347.09
2023-03-07T22:06:21.064Z,99362.09
2023-03-07T22:08:48.881Z,99358.41
2023-03-07T22:11:17.431Z,99360.50
2023-03-07T22:13:44.950Z,99363.25
2023-03-07T22:16:14.333Z,99362.41
2023-03-07T22:18:43.193Z,99363.50
2023-03-07T22:21:13.792Z,99374.06
2023-03-07T22:23:41.737Z,99368.94
2023-03-07T22:26:10.877Z,99376.16
2023-03-07T22:28:40.447Z,99380.69
2023-03-07T22:31:10.119Z,99381.84
2023-03-07T22:33:38.430Z,99373.28
2023-03-07T22:36:11.486Z,99378.75
2023-03-07T22:38:39.307Z,99380.63
2023-03-07T22:41:09.051Z,99379.19
2023-03-07T22:43:37.387Z,99390.69
2023-03-07T22:46:05.380Z,99386.41
2023-03-07T22:48:33.318Z,99384.81
2023-03-07T22:51:01.284Z,99375.22
2023-03-07T22:53:31.009Z,99382.22
2023-03-07T22:56:00.052Z,99383.91
2023-03-07T22:58:28.317Z,99383.69
2023-03-07T23:00:57.062Z,99394.25
2023-03-07T23:03:26.415Z,99384.50
2023-03-07T23:05:53.958Z,99389.75
2023-03-07T23:08:21.523Z,99390.38
2023-03-07T23:10:51.153Z,99396.31
2023-03-07T23:13:18.814Z,99398.13
2023-03-07T23:15:46.376Z,99394.66
2023-03-07T23:18:13.968Z,99394.34
2023-03-07T23:20:41.468Z,99391.72
2023-03-07T23:23:09.371Z,99394.47
2023-03-07T23:26:04.669Z,99399.69
2023-03-07T23:28:32.408Z,99401.38
2023-03-07T23:31:00.036Z,99390.06
2023-03-07T23:33:27.619Z,99400.63
2023-03-07T23:35:55.206Z,99397.06
2023-03-07T23:38:24.364Z,99399.75
2023-03-07T23:40:51.926Z,99395.28
2023-03-07T23:43:20.854Z,99404.19
2023-03-07T23:45:48.876Z,99403.97
2023-03-07T23:48:16.543Z,99411.09
2023-03-07T23:50:44.784Z,99413.00
2023-03-07T23:53:12.364Z,99417.16
2023-03-07T23:55:41.451Z,99421.56
2023-03-07T23:58:09.832Z,99420.72
